sensor_id;sensor_type;location;lat;lon;timestamp;P1;durP1;ratioP1;P2;durP2;ratioP2
78368;SDS011;71113;43.092;-89.268;2024-03-22T00:01:54;124.68;;;45.53;;
78368;SDS011;71113;43.092;-89.268;2024-03-22T00:04:22;130.95;;;47.70;;
78368;SDS011;71113;43.092;-89.268;2024-03-22T00:06:48;123.18;;;46.00;;
78368;SDS011;71113;43.092;-89.268;2024-03-22T00:09:16;119.72;;;44.97;;
78368;SDS011;71113;43.092;-89.268;2024-03-22T00:11:43;114.13;;;41.85;;
78368;SDS011;71113;43.092;-89.268;2024-03-22T00:14:11;113.65;;;43.05;;
78368;SDS011;71113;43.092;-89.268;2024-03-22T00:16:39;111.05;;;41.30;;
78368;SDS011;71113;43.092;-89.268;2024-03-22T00:19:08;115.18;;;40.70;;
78368;SDS011;71113;43.092;-89.268;2024-03-22T00:21:34;101.55;;;39.15;;
78368;SDS011;71113;43.092;-89.268;2024-03-22T00:24:04;105.35;;;38.92;;
78368;SDS011;71113;43.092;-89.268;2024-03-22T00:26:31;96.35;;;35.58;;
78368;SDS011;71113;43.092;-89.268;2024-03-22T00:28:57;111.90;;;41.47;;
78368;SDS011;71113;43.092;-89.268;2024-03-22T00:31:27;97.97;;;35.47;;
78368;SDS011;71113;43.092;-89.268;2024-03-22T00:33:58;92.65;;;32.65;;
78368;SDS011;71113;43.092;-89.268;2024-03-22T00:36:30;84.32;;;31.30;;
78368;SDS011;71113;43.092;-89.268;2024-03-22T00:38:59;83.68;;;28.83;;
78368;SDS011;71113;43.092;-89.268;2024-03-22T00:41:31;86.63;;;30.35;;
78368;SDS011;71113;43.092;-89.268;2024-03-22T00:43:57;87.60;;;31.02;;
78368;SDS011;71113;43.092;-89.268;2024-03-22T00:46:23;80.68;;;28.65;;
78368;SDS011;71113;43.092;-89.268;2024-03-22T00:48:52;74.25;;;25.73;;
78368;SDS011;71113;43.092;-89.268;2024-03-22T00:51:21;71.22;;;26.77;;
78368;SDS011;71113;43.092;-89.268;2024-03-22T00:53:51;67.00;;;23.73;;
78368;SDS011;71113;43.092;-89.268;2024-03-22T00:56:18;73.18;;;25.50;;
78368;SDS011;71113;43.092;-89.268;2024-03-22T00:58:44;69.50;;;24.88;;
78368;SDS011;71113;43.092;-89.268;2024-03-22T01:01:10;61.08;;;23.42;;
78368;SDS011;71113;43.092;-89.268;2024-03-22T01:03:37;64.15;;;22.58;;
78368;SDS011;71113;43.092;-89.268;2024-03-22T01:06:04;59.28;;;21.13;;
78368;SDS011;71113;43.092;-89.268;2024-03-22T01:08:30;56.90;;;20.40;;
78368;SDS011;71113;43.092;-89.268;2024-03-22T01:10:57;56.85;;;21.13;;
78368;SDS011;71113;43.092;-89.268;2024-03-22T01:13:23;54.85;;;19.20;;
78368;SDS011;71113;43.092;-89.268;2024-03-22T01:15:49;57.72;;;21.00;;
78368;SDS011;71113;43.092;-89.268;2024-03-22T01:18:15;52.72;;;17.58;;
78368;SDS011;71113;43.092;-89.268;2024-03-22T01:20:41;49.85;;;17.77;;
78368;SDS011;71113;43.092;-89.268;2024-03-22T01:23:08;41.40;;;15.50;;
78368;SDS011;71113;43.092;-89.268;2024-03-22T01:25:34;49.63;;;17.15;;
78368;SDS011;71113;43.092;-89.268;2024-03-22T01:28:03;46.28;;;16.67;;
78368;SDS011;71113;43.092;-89.268;2024-03-22T01:30:32;40.03;;;15.00;;
78368;SDS011;71113;43.092;-89.268;2024-03-22T01:32:59;36.38;;;14.55;;
78368;SDS011;71113;43.092;-89.268;2024-03-22T01:35:25;38.58;;;13.60;;
78368;SDS011;71113;43.092;-89.268;2024-03-22T01:37:51;33.45;;;11.95;;
78368;SDS011;71113;43.092;-89.268;2024-03-22T01:40:17;34.75;;;12.73;;
78368;SDS011;71113;43.092;-89.268;2024-03-22T01:42:43;34.60;;;12.70;;
78368;SDS011;71113;43.092;-89.268;2024-03-22T01:45:11;31.80;;;12.82;;
78368;SDS011;71113;43.092;-89.268;2024-03-22T01:47:39;33.72;;;12.43;;
78368;SDS011;71113;43.092;-89.268;2024-03-22T01:50:05;26.05;;;10.07;;
78368;SDS011;71113;43.092;-89.268;2024-03-22T01:52:32;24.50;;;9.38;;
78368;SDS011;71113;43.092;-89.268;2024-03-22T01:54:59;23.77;;;8.73;;
78368;SDS011;71113;43.092;-89.268;2024-03-22T01:57:27;25.70;;;8.88;;
78368;SDS011;71113;43.092;-89.268;2024-03-22T01:59:53;25.77;;;8.98;;
78368;SDS011;71113;43.092;-89.268;2024-03-22T02:02:21;24.58;;;9.07;;
78368;SDS011;71113;43.092;-89.268;2024-03-22T02:04:50;23.30;;;8.77;;
78368;SDS011;71113;43.092;-89.268;2024-03-22T02:07:16;25.42;;;9.30;;
78368;SDS011;71113;43.092;-89.268;2024-03-22T02:09:42;22.50;;;9.18;;
78368;SDS011;71113;43.092;-89.268;2024-03-22T02:12:10;21.75;;;8.65;;
78368;SDS011;71113;43.092;-89.268;2024-03-22T02:14:37;20.60;;;8.13;;
78368;SDS011;71113;43.092;-89.268;2024-03-22T02:17:05;21.13;;;8.45;;
78368;SDS011;71113;43.092;-89.268;2024-03-22T02:19:31;22.85;;;8.02;;
78368;SDS011;71113;43.092;-89.268;2024-03-22T02:21:57;21.35;;;7.65;;
78368;SDS011;71113;43.092;-89.268;2024-03-22T02:24:24;19.17;;;7.93;;
78368;SDS011;71113;43.092;-89.268;2024-03-22T02:26:50;19.92;;;7.53;;
78368;SDS011;71113;43.092;-89.268;2024-03-22T02:29:16;18.40;;;6.72;;
78368;SDS011;71113;43.092;-89.268;2024-03-22T02:31:42;16.85;;;6.55;;
78368;SDS011;71113;43.092;-89.268;2024-03-22T02:34:08;17.90;;;7.13;;
78368;SDS011;71113;43.092;-89.268;2024-03-22T02:36:34;18.67;;;6.88;;
78368;SDS011;71113;43.092;-89.268;2024-03-22T02:39:01;17.27;;;7.13;;
78368;SDS011;71113;43.092;-89.268;2024-03-22T02:41:27;16.50;;;6.00;;
78368;SDS011;71113;43.092;-89.268;2024-03-22T02:43:53;15.68;;;6.10;;
78368;SDS011;71113;43.092;-89.268;2024-03-22T02:46:19;16.63;;;6.22;;
78368;SDS011;71113;43.092;-89.268;2024-03-22T02:48:45;18.27;;;6.60;;
78368;SDS011;71113;43.092;-89.268;2024-03-22T02:51:11;19.02;;;6.60;;
78368;SDS011;71113;43.092;-89.268;2024-03-22T02:53:37;18.65;;;6.43;;
78368;SDS011;71113;43.092;-89.268;2024-03-22T02:56:03;15.70;;;5.78;;
78368;SDS011;71113;43.092;-89.268;2024-03-22T02:58:30;14.13;;;5.32;;
78368;SDS011;71113;43.092;-89.268;2024-03-22T03:00:56;13.43;;;5.50;;
78368;SDS011;71113;43.092;-89.268;2024-03-22T03:03:21;15.38;;;5.95;;
78368;SDS011;71113;43.092;-89.268;2024-03-22T03:05:47;14.60;;;5.00;;
78368;SDS011;71113;43.092;-89.268;2024-03-22T03:08:13;14.70;;;4.65;;
78368;SDS011;71113;43.092;-89.268;2024-03-22T03:10:39;13.88;;;5.03;;
78368;SDS011;71113;43.092;-89.268;2024-03-22T03:13:05;12.80;;;5.00;;
78368;SDS011;71113;43.092;-89.268;2024-03-22T03:15:31;14.05;;;5.57;;
78368;SDS011;71113;43.092;-89.268;2024-03-22T03:17:57;12.00;;;4.43;;
78368;SDS011;71113;43.092;-89.268;2024-03-22T03:20:24;11.02;;;5.15;;
78368;SDS011;71113;43.092;-89.268;2024-03-22T03:22:50;12.07;;;4.20;;
78368;SDS011;71113;43.092;-89.268;2024-03-22T03:25:17;10.75;;;4.20;;
78368;SDS011;71113;43.092;-89.268;2024-03-22T03:27:43;12.48;;;4.97;;
78368;SDS011;71113;43.092;-89.268;2024-03-22T03:30:09;10.80;;;4.40;;
78368;SDS011;71113;43.092;-89.268;2024-03-22T03:32:35;11.23;;;4.70;;
78368;SDS011;71113;43.092;-89.268;2024-03-22T03:35:01;9.60;;;4.18;;
78368;SDS011;71113;43.092;-89.268;2024-03-22T03:37:27;10.68;;;4.13;;
78368;SDS011;71113;43.092;-89.268;2024-03-22T03:39:53;10.02;;;3.40;;
78368;SDS011;71113;43.092;-89.268;2024-03-22T03:42:19;9.15;;;3.28;;
78368;SDS011;71113;43.092;-89.268;2024-03-22T03:44:45;6.57;;;2.75;;
78368;SDS011;71113;43.092;-89.268;2024-03-22T03:47:11;8.32;;;3.30;;
78368;SDS011;71113;43.092;-89.268;2024-03-22T03:49:37;7.20;;;3.35;;
78368;SDS011;71113;43.092;-89.268;2024-03-22T03:52:03;6.22;;;2.80;;
78368;SDS011;71113;43.092;-89.268;2024-03-22T03:54:29;7.30;;;3.10;;
78368;SDS011;71113;43.092;-89.268;2024-03-22T03:56:55;6.70;;;2.70;;
78368;SDS011;71113;43.092;-89.268;2024-03-22T03:59:22;6.30;;;2.50;;
78368;SDS011;71113;43.092;-89.268;2024-03-22T04:01:47;6.70;;;3.13;;
78368;SDS011;71113;43.092;-89.268;2024-03-22T04:04:14;6.30;;;2.58;;
78368;SDS011;71113;43.092;-89.268;2024-03-22T04:06:40;5.97;;;2.42;;
78368;SDS011;71113;43.092;-89.268;2024-03-22T04:09:06;4.63;;;2.33;;
78368;SDS011;71113;43.092;-89.268;2024-03-22T04:11:32;6.22;;;2.13;;
78368;SDS011;71113;43.092;-89.268;2024-03-22T04:13:58;5.03;;;2.28;;
78368;SDS011;71113;43.092;-89.268;2024-03-22T04:16:24;4.25;;;2.08;;
78368;SDS011;71113;43.092;-89.268;2024-03-22T04:18:50;4.28;;;2.30;;
78368;SDS011;71113;43.092;-89.268;2024-03-22T04:21:16;5.97;;;2.05;;
78368;SDS011;71113;43.092;-89.268;2024-03-22T04:23:42;4.47;;;2.10;;
78368;SDS011;71113;43.092;-89.268;2024-03-22T04:26:08;5.22;;;2.15;;
78368;SDS011;71113;43.092;-89.268;2024-03-22T04:28:34;5.35;;;2.40;;
78368;SDS011;71113;43.092;-89.268;2024-03-22T04:31:00;4.43;;;2.08;;
78368;SDS011;71113;43.092;-89.268;2024-03-22T04:33:31;5.97;;;2.45;;
78368;SDS011;71113;43.092;-89.268;2024-03-22T04:35:58;3.97;;;2.13;;
78368;SDS011;71113;43.092;-89.268;2024-03-22T04:38:26;5.35;;;2.10;;
78368;SDS011;71113;43.092;-89.268;2024-03-22T04:40:52;4.40;;;2.13;;
78368;SDS011;71113;43.092;-89.268;2024-03-22T04:43:19;4.15;;;2.05;;
78368;SDS011;71113;43.092;-89.268;2024-03-22T04:45:46;4.57;;;1.88;;
78368;SDS011;71113;43.092;-89.268;2024-03-22T04:48:14;4.28;;;1.95;;
78368;SDS011;71113;43.092;-89.268;2024-03-22T04:50:42;6.78;;;2.25;;
78368;SDS011;71113;43.092;-89.268;2024-03-22T04:53:07;4.15;;;1.80;;
78368;SDS011;71113;43.092;-89.268;2024-03-22T04:55:33;4.10;;;1.70;;
78368;SDS011;71113;43.092;-89.268;2024-03-22T04:57:59;5.90;;;1.90;;
78368;SDS011;71113;43.092;-89.268;2024-03-22T05:00:26;4.25;;;2.15;;
78368;SDS011;71113;43.092;-89.268;2024-03-22T05:02:52;4.80;;;1.80;;
78368;SDS011;71113;43.092;-89.268;2024-03-22T05:05:18;3.67;;;1.88;;
78368;SDS011;71113;43.092;-89.268;2024-03-22T05:07:44;4.78;;;2.10;;
78368;SDS011;71113;43.092;-89.268;2024-03-22T05:10:11;4.43;;;1.90;;
78368;SDS011;71113;43.092;-89.268;2024-03-22T05:12:38;3.72;;;1.70;;
78368;SDS011;71113;43.092;-89.268;2024-03-22T05:15:05;3.97;;;1.67;;
78368;SDS011;71113;43.092;-89.268;2024-03-22T05:17:33;3.88;;;1.70;;
78368;SDS011;71113;43.092;-89.268;2024-03-22T05:19:59;2.78;;;1.48;;
78368;SDS011;71113;43.092;-89.268;2024-03-22T05:22:25;3.30;;;1.65;;
78368;SDS011;71113;43.092;-89.268;2024-03-22T05:24:51;3.15;;;1.75;;
78368;SDS011;71113;43.092;-89.268;2024-03-22T05:27:17;3.17;;;1.52;;
78368;SDS011;71113;43.092;-89.268;2024-03-22T05:29:43;3.67;;;1.50;;
78368;SDS011;71113;43.092;-89.268;2024-03-22T05:32:10;3.00;;;1.48;;
78368;SDS011;71113;43.092;-89.268;2024-03-22T05:34:36;3.97;;;1.70;;
78368;SDS011;71113;43.092;-89.268;2024-03-22T05:37:02;3.55;;;1.50;;
78368;SDS011;71113;43.092;-89.268;2024-03-22T05:39:28;2.45;;;1.05;;
78368;SDS011;71113;43.092;-89.268;2024-03-22T05:41:54;3.47;;;1.67;;
78368;SDS011;71113;43.092;-89.268;2024-03-22T05:44:22;2.80;;;1.30;;
78368;SDS011;71113;43.092;-89.268;2024-03-22T05:46:48;3.17;;;1.42;;
78368;SDS011;71113;43.092;-89.268;2024-03-22T05:49:15;2.88;;;1.55;;
78368;SDS011;71113;43.092;-89.268;2024-03-22T05:51:41;3.08;;;1.55;;
78368;SDS011;71113;43.092;-89.268;2024-03-22T05:54:07;2.40;;;1.25;;
78368;SDS011;71113;43.092;-89.268;2024-03-22T05:56:33;2.28;;;1.38;;
78368;SDS011;71113;43.092;-89.268;2024-03-22T05:58:59;2.75;;;1.27;;
78368;SDS011;71113;43.092;-89.268;2024-03-22T06:01:25;2.55;;;1.30;;
78368;SDS011;71113;43.092;-89.268;2024-03-22T06:03:51;2.42;;;1.38;;
78368;SDS011;71113;43.092;-89.268;2024-03-22T06:06:17;2.78;;;1.40;;
78368;SDS011;71113;43.092;-89.268;2024-03-22T06:08:43;1.90;;;1.20;;
78368;SDS011;71113;43.092;-89.268;2024-03-22T06:11:10;2.67;;;1.40;;
78368;SDS011;71113;43.092;-89.268;2024-03-22T06:13:37;2.95;;;1.30;;
78368;SDS011;71113;43.092;-89.268;2024-03-22T06:16:03;2.80;;;1.30;;
78368;SDS011;71113;43.092;-89.268;2024-03-22T06:18:29;2.72;;;1.27;;
78368;SDS011;71113;43.092;-89.268;2024-03-22T06:20:55;1.95;;;1.13;;
78368;SDS011;71113;43.092;-89.268;2024-03-22T06:23:21;2.08;;;1.30;;
78368;SDS011;71113;43.092;-89.268;2024-03-22T06:25:53;2.85;;;1.50;;
78368;SDS011;71113;43.092;-89.268;2024-03-22T06:28:19;2.35;;;1.20;;
78368;SDS011;71113;43.092;-89.268;2024-03-22T06:30:45;1.98;;;1.08;;
78368;SDS011;71113;43.092;-89.268;2024-03-22T06:33:11;3.10;;;1.40;;
78368;SDS011;71113;43.092;-89.268;2024-03-22T06:35:37;2.17;;;1.15;;
78368;SDS011;71113;43.092;-89.268;2024-03-22T06:38:03;2.15;;;1.20;;
78368;SDS011;71113;43.092;-89.268;2024-03-22T06:40:29;2.20;;;1.20;;
78368;SDS011;71113;43.092;-89.268;2024-03-22T06:42:56;1.88;;;1.00;;
78368;SDS011;71113;43.092;-89.268;2024-03-22T06:45:22;1.95;;;1.10;;
78368;SDS011;71113;43.092;-89.268;2024-03-22T06:47:48;2.22;;;1.25;;
78368;SDS011;71113;43.092;-89.268;2024-03-22T06:50:14;1.70;;;1.00;;
78368;SDS011;71113;43.092;-89.268;2024-03-22T06:52:40;2.60;;;1.20;;
78368;SDS011;71113;43.092;-89.268;2024-03-22T06:55:06;2.65;;;1.38;;
78368;SDS011;71113;43.092;-89.268;2024-03-22T06:57:32;2.30;;;1.27;;
78368;SDS011;71113;43.092;-89.268;2024-03-22T07:00:00;1.65;;;1.08;;
78368;SDS011;71113;43.092;-89.268;2024-03-22T07:02:26;1.67;;;1.05;;
78368;SDS011;71113;43.092;-89.268;2024-03-22T07:04:52;1.95;;;1.10;;
78368;SDS011;71113;43.092;-89.268;2024-03-22T07:07:18;1.15;;;0.77;;
78368;SDS011;71113;43.092;-89.268;2024-03-22T07:09:44;1.40;;;1.00;;
78368;SDS011;71113;43.092;-89.268;2024-03-22T07:12:11;1.80;;;1.10;;
78368;SDS011;71113;43.092;-89.268;2024-03-22T07:14:37;1.92;;;1.10;;
78368;SDS011;71113;43.092;-89.268;2024-03-22T07:17:03;2.45;;;1.33;;
78368;SDS011;71113;43.092;-89.268;2024-03-22T07:19:29;1.95;;;1.10;;
78368;SDS011;71113;43.092;-89.268;2024-03-22T07:21:55;1.90;;;1.10;;
78368;SDS011;71113;43.092;-89.268;2024-03-22T07:24:21;2.50;;;1.30;;
78368;SDS011;71113;43.092;-89.268;2024-03-22T07:26:49;1.23;;;1.00;;
78368;SDS011;71113;43.092;-89.268;2024-03-22T07:29:15;1.58;;;0.90;;
78368;SDS011;71113;43.092;-89.268;2024-03-22T07:31:41;1.27;;;0.85;;
78368;SDS011;71113;43.092;-89.268;2024-03-22T07:34:07;1.95;;;1.10;;
78368;SDS011;71113;43.092;-89.268;2024-03-22T07:36:37;1.05;;;0.65;;
78368;SDS011;71113;43.092;-89.268;2024-03-22T07:39:03;2.13;;;1.30;;
78368;SDS011;71113;43.092;-89.268;2024-03-22T07:41:32;1.15;;;0.93;;
78368;SDS011;71113;43.092;-89.268;2024-03-22T07:43:58;1.40;;;1.00;;
78368;SDS011;71113;43.092;-89.268;2024-03-22T07:46:25;1.52;;;0.93;;
78368;SDS011;71113;43.092;-89.268;2024-03-22T07:48:52;1.30;;;0.95;;
78368;SDS011;71113;43.092;-89.268;2024-03-22T07:51:21;1.40;;;0.90;;
78368;SDS011;71113;43.092;-89.268;2024-03-22T07:53:47;2.08;;;1.30;;
78368;SDS011;71113;43.092;-89.268;2024-03-22T07:56:13;1.42;;;1.00;;
78368;SDS011;71113;43.092;-89.268;2024-03-22T07:58:40;1.27;;;0.82;;
78368;SDS011;71113;43.092;-89.268;2024-03-22T08:01:08;1.35;;;0.90;;
78368;SDS011;71113;43.092;-89.268;2024-03-22T08:03:34;1.45;;;0.93;;
78368;SDS011;71113;43.092;-89.268;2024-03-22T08:06:00;1.17;;;0.82;;
78368;SDS011;71113;43.092;-89.268;2024-03-22T08:08:26;1.35;;;0.65;;
78368;SDS011;71113;43.092;-89.268;2024-03-22T08:10:52;1.67;;;1.05;;
78368;SDS011;71113;43.092;-89.268;2024-03-22T08:13:17;1.80;;;0.93;;
78368;SDS011;71113;43.092;-89.268;2024-03-22T08:15:43;1.65;;;0.90;;
78368;SDS011;71113;43.092;-89.268;2024-03-22T08:18:12;1.30;;;0.98;;
78368;SDS011;71113;43.092;-89.268;2024-03-22T08:20:38;1.35;;;0.82;;
78368;SDS011;71113;43.092;-89.268;2024-03-22T08:23:04;1.38;;;0.98;;
78368;SDS011;71113;43.092;-89.268;2024-03-22T08:25:30;1.35;;;0.93;;
78368;SDS011;71113;43.092;-89.268;2024-03-22T08:27:57;1.17;;;0.80;;
78368;SDS011;71113;43.092;-89.268;2024-03-22T08:30:23;1.23;;;0.80;;
78368;SDS011;71113;43.092;-89.268;2024-03-22T08:32:50;1.30;;;0.85;;
78368;SDS011;71113;43.092;-89.268;2024-03-22T08:35:17;1.50;;;0.98;;
78368;SDS011;71113;43.092;-89.268;2024-03-22T08:37:43;0.77;;;0.65;;
78368;SDS011;71113;43.092;-89.268;2024-03-22T08:40:09;1.75;;;1.30;;
78368;SDS011;71113;43.092;-89.268;2024-03-22T08:42:36;1.55;;;1.00;;
78368;SDS011;71113;43.092;-89.268;2024-03-22T08:45:02;1.90;;;1.00;;
78368;SDS011;71113;43.092;-89.268;2024-03-22T08:47:29;0.95;;;0.80;;
78368;SDS011;71113;43.092;-89.268;2024-03-22T08:49:56;0.93;;;0.75;;
78368;SDS011;71113;43.092;-89.268;2024-03-22T08:52:23;1.23;;;0.85;;
78368;SDS011;71113;43.092;-89.268;2024-03-22T08:54:52;1.17;;;0.80;;
78368;SDS011;71113;43.092;-89.268;2024-03-22T08:57:18;1.00;;;0.77;;
78368;SDS011;71113;43.092;-89.268;2024-03-22T08:59:45;1.25;;;0.80;;
78368;SDS011;71113;43.092;-89.268;2024-03-22T09:02:11;0.98;;;0.80;;
78368;SDS011;71113;43.092;-89.268;2024-03-22T09:04:37;1.08;;;0.75;;
78368;SDS011;71113;43.092;-89.268;2024-03-22T09:07:03;1.33;;;0.80;;
78368;SDS011;71113;43.092;-89.268;2024-03-22T09:09:29;0.75;;;0.75;;
78368;SDS011;71113;43.092;-89.268;2024-03-22T09:11:55;0.85;;;0.70;;
78368;SDS011;71113;43.092;-89.268;2024-03-22T09:14:21;0.82;;;0.80;;
78368;SDS011;71113;43.092;-89.268;2024-03-22T09:16:47;1.73;;;0.95;;
78368;SDS011;71113;43.092;-89.268;2024-03-22T09:19:13;0.75;;;0.68;;
78368;SDS011;71113;43.092;-89.268;2024-03-22T09:21:39;1.02;;;0.70;;
78368;SDS011;71113;43.092;-89.268;2024-03-22T09:24:04;0.82;;;0.75;;
78368;SDS011;71113;43.092;-89.268;2024-03-22T09:26:34;0.73;;;0.52;;
78368;SDS011;71113;43.092;-89.268;2024-03-22T09:29:00;0.63;;;0.63;;
78368;SDS011;71113;43.092;-89.268;2024-03-22T09:31:26;0.98;;;0.73;;
78368;SDS011;71113;43.092;-89.268;2024-03-22T09:33:52;1.27;;;0.85;;
78368;SDS011;71113;43.092;-89.268;2024-03-22T09:36:18;1.13;;;0.80;;
78368;SDS011;71113;43.092;-89.268;2024-03-22T09:38:44;1.13;;;1.02;;
78368;SDS011;71113;43.092;-89.268;2024-03-22T09:41:10;1.10;;;0.77;;
78368;SDS011;71113;43.092;-89.268;2024-03-22T09:43:38;1.42;;;0.90;;
78368;SDS011;71113;43.092;-89.268;2024-03-22T09:46:04;0.95;;;0.70;;
78368;SDS011;71113;43.092;-89.268;2024-03-22T09:48:31;1.10;;;0.80;;
78368;SDS011;71113;43.092;-89.268;2024-03-22T09:50:57;1.50;;;0.90;;
78368;SDS011;71113;43.092;-89.268;2024-03-22T09:53:23;0.90;;;0.85;;
78368;SDS011;71113;43.092;-89.268;2024-03-22T09:55:52;1.23;;;0.90;;
78368;SDS011;71113;43.092;-89.268;2024-03-22T09:58:23;1.33;;;0.90;;
78368;SDS011;71113;43.092;-89.268;2024-03-22T10:00:49;0.57;;;0.57;;
78368;SDS011;71113;43.092;-89.268;2024-03-22T10:03:15;1.27;;;0.82;;
78368;SDS011;71113;43.092;-89.268;2024-03-22T10:05:42;0.90;;;0.60;;
78368;SDS011;71113;43.092;-89.268;2024-03-22T10:08:07;1.55;;;0.90;;
78368;SDS011;71113;43.092;-89.268;2024-03-22T10:10:33;1.10;;;0.80;;
78368;SDS011;71113;43.092;-89.268;2024-03-22T10:13:00;1.50;;;0.90;;
78368;SDS011;71113;43.092;-89.268;2024-03-22T10:15:27;1.13;;;0.80;;
78368;SDS011;71113;43.092;-89.268;2024-03-22T10:17:56;1.45;;;0.90;;
78368;SDS011;71113;43.092;-89.268;2024-03-22T10:20:22;0.63;;;0.60;;
78368;SDS011;71113;43.092;-89.268;2024-03-22T10:22:53;1.20;;;0.80;;
78368;SDS011;71113;43.092;-89.268;2024-03-22T10:25:22;1.45;;;0.90;;
78368;SDS011;71113;43.092;-89.268;2024-03-22T10:27:48;1.20;;;0.85;;
78368;SDS011;71113;43.092;-89.268;2024-03-22T10:30:15;1.35;;;0.80;;
78368;SDS011;71113;43.092;-89.268;2024-03-22T10:32:42;1.02;;;0.80;;
78368;SDS011;71113;43.092;-89.268;2024-03-22T10:35:11;0.95;;;0.70;;
78368;SDS011;71113;43.092;-89.268;2024-03-22T10:37:38;1.10;;;0.80;;
78368;SDS011;71113;43.092;-89.268;2024-03-22T10:40:05;0.98;;;0.68;;
78368;SDS011;71113;43.092;-89.268;2024-03-22T10:42:38;0.98;;;0.70;;
78368;SDS011;71113;43.092;-89.268;2024-03-22T10:45:06;0.93;;;0.80;;
78368;SDS011;71113;43.092;-89.268;2024-03-22T10:47:33;1.35;;;0.73;;
78368;SDS011;71113;43.092;-89.268;2024-03-22T10:50:07;1.20;;;0.80;;
78368;SDS011;71113;43.092;-89.268;2024-03-22T10:52:35;0.88;;;0.73;;
78368;SDS011;71113;43.092;-89.268;2024-03-22T10:55:22;1.13;;;0.77;;
78368;SDS011;71113;43.092;-89.268;2024-03-22T10:57:56;0.88;;;0.73;;
78368;SDS011;71113;43.092;-89.268;2024-03-22T11:00:32;1.30;;;0.70;;
78368;SDS011;71113;43.092;-89.268;2024-03-22T11:03:03;1.10;;;0.90;;
78368;SDS011;71113;43.092;-89.268;2024-03-22T11:05:29;0.93;;;0.80;;
78368;SDS011;71113;43.092;-89.268;2024-03-22T11:07:59;0.85;;;0.82;;
78368;SDS011;71113;43.092;-89.268;2024-03-22T11:10:35;1.20;;;0.80;;
78368;SDS011;71113;43.092;-89.268;2024-03-22T11:13:02;1.13;;;1.02;;
78368;SDS011;71113;43.092;-89.268;2024-03-22T11:15:29;1.83;;;0.60;;
78368;SDS011;71113;43.092;-89.268;2024-03-22T11:17:56;0.85;;;0.80;;
78368;SDS011;71113;43.092;-89.268;2024-03-22T11:20:24;1.13;;;0.85;;
78368;SDS011;71113;43.092;-89.268;2024-03-22T11:22:56;1.02;;;0.70;;
78368;SDS011;71113;43.092;-89.268;2024-03-22T11:25:22;0.68;;;0.68;;
78368;SDS011;71113;43.092;-89.268;2024-03-22T11:27:48;0.85;;;0.70;;
78368;SDS011;71113;43.092;-89.268;2024-03-22T11:30:17;0.90;;;0.70;;
78368;SDS011;71113;43.092;-89.268;2024-03-22T11:32:43;0.57;;;0.55;;
78368;SDS011;71113;43.092;-89.268;2024-03-22T11:35:13;1.00;;;0.80;;
78368;SDS011;71113;43.092;-89.268;2024-03-22T11:37:39;0.93;;;0.70;;
78368;SDS011;71113;43.092;-89.268;2024-03-22T11:40:08;0.57;;;0.57;;
78368;SDS011;71113;43.092;-89.268;2024-03-22T11:42:39;1.35;;;1.00;;
78368;SDS011;71113;43.092;-89.268;2024-03-22T11:45:07;0.98;;;0.75;;
78368;SDS011;71113;43.092;-89.268;2024-03-22T11:47:34;0.90;;;0.73;;
78368;SDS011;71113;43.092;-89.268;2024-03-22T11:50:01;0.82;;;0.70;;
78368;SDS011;71113;43.092;-89.268;2024-03-22T11:52:27;0.50;;;0.50;;
78368;SDS011;71113;43.092;-89.268;2024-03-22T11:54:54;1.23;;;0.73;;
78368;SDS011;71113;43.092;-89.268;2024-03-22T11:57:20;1.98;;;0.90;;
78368;SDS011;71113;43.092;-89.268;2024-03-22T11:59:47;1.05;;;0.70;;
78368;SDS011;71113;43.092;-89.268;2024-03-22T12:02:13;1.65;;;0.77;;
78368;SDS011;71113;43.092;-89.268;2024-03-22T12:04:46;1.08;;;0.80;;
78368;SDS011;71113;43.092;-89.268;2024-03-22T12:07:15;1.00;;;0.82;;
78368;SDS011;71113;43.092;-89.268;2024-03-22T12:09:43;1.00;;;0.85;;
78368;SDS011;71113;43.092;-89.268;2024-03-22T12:12:10;1.02;;;0.80;;
78368;SDS011;71113;43.092;-89.268;2024-03-22T12:14:37;2.38;;;0.77;;
78368;SDS011;71113;43.092;-89.268;2024-03-22T12:17:04;0.63;;;0.63;;
78368;SDS011;71113;43.092;-89.268;2024-03-22T12:19:31;1.27;;;0.80;;
78368;SDS011;71113;43.092;-89.268;2024-03-22T12:21:56;1.23;;;0.90;;
78368;SDS011;71113;43.092;-89.268;2024-03-22T12:24:22;1.20;;;0.80;;
78368;SDS011;71113;43.092;-89.268;2024-03-22T12:26:50;1.33;;;0.90;;
78368;SDS011;71113;43.092;-89.268;2024-03-22T12:29:16;1.00;;;0.80;;
78368;SDS011;71113;43.092;-89.268;2024-03-22T12:31:43;0.75;;;0.70;;
78368;SDS011;71113;43.092;-89.268;2024-03-22T12:34:09;455.92;;;248.38;;
78368;SDS011;71113;43.092;-89.268;2024-03-22T12:36:36;478.65;;;210.20;;
78368;SDS011;71113;43.092;-89.268;2024-03-22T12:39:02;152.27;;;66.88;;
78368;SDS011;71113;43.092;-89.268;2024-03-22T12:41:29;362.08;;;115.70;;
78368;SDS011;71113;43.092;-89.268;2024-03-22T12:43:57;502.25;;;159.20;;
78368;SDS011;71113;43.092;-89.268;2024-03-22T12:46:23;181.18;;;68.68;;
78368;SDS011;71113;43.092;-89.268;2024-03-22T12:48:49;201.13;;;74.85;;
78368;SDS011;71113;43.092;-89.268;2024-03-22T12:51:15;226.15;;;75.45;;
78368;SDS011;71113;43.092;-89.268;2024-03-22T12:53:41;219.40;;;73.00;;
78368;SDS011;71113;43.092;-89.268;2024-03-22T12:56:07;208.93;;;69.43;;
78368;SDS011;71113;43.092;-89.268;2024-03-22T12:58:33;212.15;;;72.05;;
78368;SDS011;71113;43.092;-89.268;2024-03-22T13:00:59;211.63;;;69.88;;
78368;SDS011;71113;43.092;-89.268;2024-03-22T13:03:27;205.18;;;69.28;;
78368;SDS011;71113;43.092;-89.268;2024-03-22T13:05:53;195.07;;;66.97;;
78368;SDS011;71113;43.092;-89.268;2024-03-22T13:08:19;189.27;;;61.85;;
78368;SDS011;71113;43.092;-89.268;2024-03-22T13:10:45;183.73;;;61.92;;
78368;SDS011;71113;43.092;-89.268;2024-03-22T13:13:13;166.88;;;57.03;;
78368;SDS011;71113;43.092;-89.268;2024-03-22T13:15:42;161.35;;;55.03;;
78368;SDS011;71113;43.092;-89.268;2024-03-22T13:18:08;159.23;;;55.22;;
78368;SDS011;71113;43.092;-89.268;2024-03-22T13:20:35;153.63;;;53.75;;
78368;SDS011;71113;43.092;-89.268;2024-03-22T13:23:01;147.68;;;51.75;;
78368;SDS011;71113;43.092;-89.268;2024-03-22T13:25:28;145.23;;;50.60;;
78368;SDS011;71113;43.092;-89.268;2024-03-22T13:27:54;145.93;;;50.25;;
78368;SDS011;71113;43.092;-89.268;2024-03-22T13:30:20;134.18;;;43.47;;
78368;SDS011;71113;43.092;-89.268;2024-03-22T13:32:46;121.75;;;41.25;;
78368;SDS011;71113;43.092;-89.268;2024-03-22T13:35:13;113.60;;;38.63;;
78368;SDS011;71113;43.092;-89.268;2024-03-22T13:37:40;93.80;;;31.85;;
78368;SDS011;71113;43.092;-89.268;2024-03-22T13:40:06;93.93;;;32.72;;
78368;SDS011;71113;43.092;-89.268;2024-03-22T13:42:33;96.05;;;32.55;;
78368;SDS011;71113;43.092;-89.268;2024-03-22T13:44:59;89.45;;;30.90;;
78368;SDS011;71113;43.092;-89.268;2024-03-22T13:47:25;86.03;;;30.90;;
78368;SDS011;71113;43.092;-89.268;2024-03-22T13:49:55;87.65;;;29.38;;
78368;SDS011;71113;43.092;-89.268;2024-03-22T13:52:21;86.22;;;28.23;;
78368;SDS011;71113;43.092;-89.268;2024-03-22T13:54:47;83.65;;;28.58;;
78368;SDS011;71113;43.092;-89.268;2024-03-22T13:57:13;75.93;;;25.85;;
78368;SDS011;71113;43.092;-89.268;2024-03-22T13:59:39;79.47;;;26.27;;
78368;SDS011;71113;43.092;-89.268;2024-03-22T14:02:07;75.75;;;25.55;;
78368;SDS011;71113;43.092;-89.268;2024-03-22T14:04:36;76.95;;;25.33;;
78368;SDS011;71113;43.092;-89.268;2024-03-22T14:07:02;66.15;;;23.17;;
78368;SDS011;71113;43.092;-89.268;2024-03-22T14:09:32;72.35;;;24.30;;